Time;durP1;ratioP1;P1;durP2;ratioP2;P2;SDS_P1;SDS_P2;PMS_P1;PMS_P2;Temp;Humidity;BMP_temperature;BMP_pressure;BME280_temperature;BME280_humidity;BME280_pressure;Samples;Min_cycle;Max_cycle;Signal;HPM_P1;HPM_P2
2021/01/07 00:00:32;;;;;;;;;;;;;;;21.65;28.96;97819.88;5120586;28;1070;-74
2021/01/07 00:02:57;;;;;;;;;;;;;;;21.54;29.23;97817.38;5121296;28;662;-74
2021/01/07 00:05:23;;;;;;;;;;;;;;;21.56;29.47;97831.88;5120903;28;670;-74
2021/01/07 00:07:48;;;;;;;;;;;;;;;22.09;28.83;97832.31;5120496;28;1901;-74
2021/01/07 00:10:14;;;;;;;;;;;;;;;22.55;27.70;97827.22;5120574;28;932;-74
2021/01/07 00:12:39;;;;;;;;;;;;;;;22.93;27.02;97812.97;5120269;28;960;-74
2021/01/07 00:15:05;;;;;;;;;;;;;;;22.53;27.77;97807.00;5120784;28;862;-74
2021/01/07 00:17:30;;;;;;;;;;;;;;;21.27;29.53;97810.00;5120632;28;702;-74
2021/01/07 00:19:56;;;;;;;;;;;;;;;21.62;28.92;97801.78;5120719;28;698;-74
2021/01/07 00:22:21;;;;;;;;;;;;;;;21.36;29.33;97806.56;5121210;28;657;-74
2021/01/07 00:24:47;;;;;;;;;;;;;;;22.04;28.69;97787.53;5124269;28;1018;-74
2021/01/07 00:27:12;;;;;;;;;;;;;;;22.29;28.21;97781.88;5124541;28;1906;-74
2021/01/07 00:29:37;;;;;;;;;;;;;;;22.53;27.91;97782.28;5124833;28;974;-74
2021/01/07 00:32:03;;;;;;;;;;;;;;;22.66;27.35;97775.81;5125004;28;654;-74
2021/01/07 00:34:28;;;;;;;;;;;;;;;21.71;29.00;97782.09;5124455;28;737;-74
2021/01/07 00:36:57;;;;;;;;;;;;;;;21.65;28.77;97783.06;5124728;28;678;-74
2021/01/07 00:39:22;;;;;;;;;;;;;;;21.42;29.33;97775.69;5124140;28;933;-74
2021/01/07 00:41:54;;;;;;;;;;;;;;;21.91;28.84;97775.41;5124016;28;907;-74
2021/01/07 00:44:20;;;;;;;;;;;;;;;22.49;27.82;97778.00;5124504;28;841;-74
2021/01/07 00:46:46;;;;;;;;;;;;;;;22.82;27.34;97784.94;5124467;28;1964;-74
2021/01/07 00:49:11;;;;;;;;;;;;;;;22.14;27.92;97789.25;5124312;28;663;-74
2021/01/07 00:51:37;;;;;;;;;;;;;;;21.93;28.19;97787.88;5124244;28;596;-74
2021/01/07 00:54:02;;;;;;;;;;;;;;;21.14;29.91;97782.91;5124046;28;894;-74
2021/01/07 00:56:33;;;;;;;;;;;;;;;21.28;29.87;97779.69;5106155;28;1359;-74
2021/01/07 00:58:59;;;;;;;;;;;;;;;21.27;29.66;97784.56;5124260;28;847;-74
2021/01/07 01:01:24;;;;;;;;;;;;;;;21.62;29.23;97779.13;5123948;28;623;-74
2021/01/07 01:03:50;;;;;;;;;;;;;;;21.38;29.84;97780.66;5124344;28;652;-74
2021/01/07 01:06:15;;;;;;;;;;;;;;;22.28;28.11;97751.97;5123821;28;1901;-74
2021/01/07 01:08:41;;;;;;;;;;;;;;;22.63;27.81;97757.66;5123534;28;957;-74
2021/01/07 01:11:06;;;;;;;;;;;;;;;22.81;27.34;97755.00;5123836;28;923;-74
2021/01/07 01:13:31;;;;;;;;;;;;;;;21.70;28.80;97763.47;5124009;28;905;-74
2021/01/07 01:15:57;;;;;;;;;;;;;;;21.31;29.41;97754.16;5123625;28;645;-74
2021/01/07 01:18:22;;;;;;;;;;;;;;;21.74;28.47;97758.50;5124027;28;663;-74
2021/01/07 01:20:48;;;;;;;;;;;;;;;21.00;29.54;97761.50;5123602;28;721;-74
2021/01/07 01:23:13;;;;;;;;;;;;;;;21.46;29.18;97770.72;5123699;28;1074;-74
2021/01/07 01:25:39;;;;;;;;;;;;;;;21.72;29.42;97778.00;5123315;28;903;-74
2021/01/07 01:28:04;;;;;;;;;;;;;;;22.17;28.85;97774.16;5105931;28;1980;-74
2021/01/07 01:30:30;;;;;;;;;;;;;;;22.72;27.78;97769.09;5123721;28;583;-74
2021/01/07 01:32:56;;;;;;;;;;;;;;;22.80;27.62;97776.13;5124085;28;698;-74
2021/01/07 01:35:21;;;;;;;;;;;;;;;21.83;28.58;97778.47;5123452;28;702;-74
2021/01/07 01:37:46;;;;;;;;;;;;;;;21.50;29.46;97771.38;5123218;28;963;-74
2021/01/07 01:40:18;;;;;;;;;;;;;;;21.13;29.85;97776.47;5123206;28;905;-74
2021/01/07 01:42:43;;;;;;;;;;;;;;;21.59;29.90;97768.69;5123498;28;900;-74
2021/01/07 01:45:09;;;;;;;;;;;;;;;22.47;28.06;97769.94;5123399;28;913;-74
2021/01/07 01:47:34;;;;;;;;;;;;;;;22.71;27.68;97767.50;5123300;28;1894;-74
2021/01/07 01:50:00;;;;;;;;;;;;;;;22.62;27.50;97754.03;5123389;28;680;-74
2021/01/07 01:52:25;;;;;;;;;;;;;;;21.71;28.56;97745.28;5122659;28;972;-74
2021/01/07 01:54:51;;;;;;;;;;;;;;;21.38;29.33;97744.66;5122921;28;942;-74
2021/01/07 01:57:17;;;;;;;;;;;;;;;21.13;29.47;97745.34;5122950;28;962;-74
2021/01/07 01:59:42;;;;;;;;;;;;;;;21.42;29.08;97741.72;5122838;28;682;-74
2021/01/07 02:02:09;;;;;;;;;;;;;;;21.99;28.86;97734.28;5122762;28;657;-73
2021/01/07 02:04:34;;;;;;;;;;;;;;;22.40;28.03;97732.56;5122896;28;721;-74
2021/01/07 02:07:00;;;;;;;;;;;;;;;22.69;27.72;97730.31;5122921;28;1970;-74
2021/01/07 02:09:25;;;;;;;;;;;;;;;22.34;27.97;97713.28;5122687;28;910;-74
2021/01/07 02:11:50;;;;;;;;;;;;;;;21.77;28.81;97722.84;5105266;28;948;-74
2021/01/07 02:14:16;;;;;;;;;;;;;;;21.26;29.37;97715.06;5104996;28;706;-74
2021/01/07 02:16:41;;;;;;;;;;;;;;;21.32;29.15;97721.78;5122519;28;725;-74
2021/01/07 02:19:07;;;;;;;;;;;;;;;21.91;29.13;97713.88;5122410;28;654;-74
2021/01/07 02:21:38;;;;;;;;;;;;;;;22.46;27.68;97720.16;5122261;28;974;-74
2021/01/07 02:24:04;;;;;;;;;;;;;;;22.66;27.65;97719.88;5122254;28;1184;-74
2021/01/07 02:26:29;;;;;;;;;;;;;;;22.42;27.69;97722.31;5122118;28;1910;-74
2021/01/07 02:28:55;;;;;;;;;;;;;;;21.62;28.86;97705.50;5122408;28;602;-74
2021/01/07 02:31:20;;;;;;;;;;;;;;;21.13;29.17;97719.88;5122233;28;627;-74
2021/01/07 02:33:46;;;;;;;;;;;;;;;21.35;29.29;97707.94;5122424;28;623;-74
2021/01/07 02:36:11;;;;;;;;;;;;;;;21.87;29.26;97704.72;5121960;28;918;-74
2021/01/07 02:38:37;;;;;;;;;;;;;;;22.43;27.81;97694.75;5122097;28;955;-74
2021/01/07 02:41:05;;;;;;;;;;;;;;;22.67;27.67;97680.97;5122180;28;935;-73
2021/01/07 02:43:31;;;;;;;;;;;;;;;22.75;27.43;97677.44;5122291;28;622;-74
2021/01/07 02:45:56;;;;;;;;;;;;;;;22.24;28.06;97680.44;5121397;28;618;-74
2021/01/07 02:48:21;;;;;;;;;;;;;;;20.84;29.75;97682.38;5121792;28;1929;-73
2021/01/07 02:50:47;;;;;;;;;;;;;;;21.13;29.37;97685.94;5104217;28;837;-74
2021/01/07 02:53:12;;;;;;;;;;;;;;;21.45;28.80;97678.53;5121617;28;902;-74
2021/01/07 02:55:38;;;;;;;;;;;;;;;21.52;29.22;97678.31;5121896;28;1003;-74
2021/01/07 02:58:03;;;;;;;;;;;;;;;21.46;29.13;97671.66;5121722;28;826;-74
2021/01/07 03:00:29;;;;;;;;;;;;;;;21.61;29.59;97675.63;5122087;28;586;-74
2021/01/07 03:02:54;;;;;;;;;;;;;;;22.12;28.55;97669.09;5121845;28;583;-74
2021/01/07 03:05:20;;;;;;;;;;;;;;;22.47;28.04;97661.41;5121789;28;1038;-74
2021/01/07 03:07:45;;;;;;;;;;;;;;;22.73;27.49;97657.22;5121616;28;1974;-74
2021/01/07 03:10:11;;;;;;;;;;;;;;;22.69;27.42;97650.91;5121320;28;915;-74
2021/01/07 03:12:36;;;;;;;;;;;;;;;21.27;29.50;97657.22;5121741;28;686;-74
2021/01/07 03:15:03;;;;;;;;;;;;;;;21.39;29.35;97637.88;5121497;28;693;-74
2021/01/07 03:17:28;;;;;;;;;;;;;;;21.24;29.29;97643.97;5121323;28;650;-74
2021/01/07 03:19:53;;;;;;;;;;;;;;;21.70;29.41;97621.91;5120917;28;925;-74
2021/01/07 03:22:19;;;;;;;;;;;;;;;22.26;28.54;97624.06;5121328;28;877;-73
2021/01/07 03:24:44;;;;;;;;;;;;;;;22.57;27.98;97620.56;5121311;28;1090;-74
2021/01/07 03:27:10;;;;;;;;;;;;;;;22.70;27.68;97624.13;5121357;28;1930;-74
2021/01/07 03:29:35;;;;;;;;;;;;;;;22.22;28.18;97623.41;5121520;28;678;-73
2021/01/07 03:32:01;;;;;;;;;;;;;;;21.82;28.64;97618.28;5121398;28;642;-73
2021/01/07 03:34:26;;;;;;;;;;;;;;;21.43;29.42;97619.53;5121041;28;824;-74
2021/01/07 03:36:52;;;;;;;;;;;;;;;21.38;29.77;97610.84;5120778;28;876;-74
2021/01/07 03:39:17;;;;;;;;;;;;;;;21.47;29.84;97608.91;5121197;28;944;-74
2021/01/07 03:41:43;;;;;;;;;;;;;;;21.08;30.44;97593.13;5120937;28;715;-74
2021/01/07 03:44:08;;;;;;;;;;;;;;;21.96;29.06;97590.69;5121429;28;679;-74
2021/01/07 03:46:34;;;;;;;;;;;;;;;22.61;27.87;97601.38;5120816;28;1893;-74
2021/01/07 03:48:59;;;;;;;;;;;;;;;22.84;27.40;97595.19;5120407;28;959;-74
2021/01/07 03:51:25;;;;;;;;;;;;;;;22.55;27.57;97594.72;5120990;28;839;-74
2021/01/07 03:53:50;;;;;;;;;;;;;;;21.54;29.10;97590.91;5120704;28;892;-74
2021/01/07 03:56:16;;;;;;;;;;;;;;;21.00;30.31;97595.41;5120762;28;587;-74
2021/01/07 03:58:41;;;;;;;;;;;;;;;21.39;29.90;97595.44;5120183;28;705;-74
2021/01/07 04:01:06;;;;;;;;;;;;;;;22.21;28.56;97599.16;5120953;28;670;-74
2021/01/07 04:03:32;;;;;;;;;;;;;;;22.44;28.29;97594.31;5120588;28;924;-74
2021/01/07 04:05:57;;;;;;;;;;;;;;;22.59;27.98;97595.38;5120729;28;907;-74
2021/01/07 04:08:23;;;;;;;;;;;;;;;22.47;27.92;97587.72;5120747;28;1910;-74
2021/01/07 04:10:48;;;;;;;;;;;;;;;21.69;28.87;97575.00;5120539;28;599;-74
2021/01/07 04:13:14;;;;;;;;;;;;;;;21.09;29.50;97580.59;5120616;28;654;-74
2021/01/07 04:15:39;;;;;;;;;;;;;;;21.68;29.14;97579.09;5120495;28;674;-74
2021/01/07 04:18:05;;;;;;;;;;;;;;;21.81;28.73;97581.91;5120429;28;828;-74
2021/01/07 04:20:30;;;;;;;;;;;;;;;21.62;28.93;97586.59;5120620;28;862;-74
2021/01/07 04:22:55;;;;;;;;;;;;;;;21.56;29.50;97594.88;5120195;28;979;-74
2021/01/07 04:25:21;;;;;;;;;;;;;;;21.55;29.57;97586.81;5120441;28;639;-73
2021/01/07 04:27:46;;;;;;;;;;;;;;;22.17;28.34;97589.97;5120469;28;1910;-75
2021/01/07 04:30:12;;;;;;;;;;;;;;;22.54;27.93;97570.44;5120892;28;572;-75
2021/01/07 04:32:38;;;;;;;;;;;;;;;22.71;27.57;97568.97;5120196;28;872;-75
2021/01/07 04:35:03;;;;;;;;;;;;;;;22.27;28.25;97566.13;5120484;28;836;-75
2021/01/07 04:37:29;;;;;;;;;;;;;;;21.31;29.64;97572.25;5120328;28;901;-75
2021/01/07 04:39:54;;;;;;;;;;;;;;;21.03;29.74;97559.75;5120384;28;591;-75
2021/01/07 04:42:20;;;;;;;;;;;;;;;20.93;30.04;97570.16;5121013;28;686;-75
2021/01/07 04:44:45;;;;;;;;;;;;;;;21.51;30.06;97567.13;5102686;28;694;-75
2021/01/07 04:47:11;;;;;;;;;;;;;;;22.36;28.19;97563.38;5119794;28;1902;-75
2021/01/07 04:49:36;;;;;;;;;;;;;;;22.56;27.60;97562.25;5101971;28;889;-75
2021/01/07 04:52:02;;;;;;;;;;;;;;;22.71;27.55;97563.31;5131359;28;1439;-75
2021/01/07 04:54:27;;;;;;;;;;;;;;;22.29;27.85;97566.47;5140831;28;1553;-74
2021/01/07 04:56:53;;;;;;;;;;;;;;;21.61;28.73;97553.09;5140776;28;631;-75
2021/01/07 04:59:18;;;;;;;;;;;;;;;21.00;29.63;97566.31;5122776;28;982;-75
2021/01/07 05:01:45;;;;;;;;;;;;;;;21.57;29.15;97553.97;5140834;28;899;-75
2021/01/07 05:04:10;;;;;;;;;;;;;;;21.61;29.40;97553.88;5140705;28;844;-75
2021/01/07 05:06:36;;;;;;;;;;;;;;;21.68;29.01;97547.97;5141073;28;1983;-75
2021/01/07 05:09:05;;;;;;;;;;;;;;;21.59;29.34;97542.19;5142378;27;610;-75
2021/01/07 05:11:30;;;;;;;;;;;;;;;22.01;28.53;97539.13;5144860;27;690;-75
2021/01/07 05:13:59;;;;;;;;;;;;;;;22.32;28.21;97542.06;5144179;27;978;-75
2021/01/07 05:16:25;;;;;;;;;;;;;;;22.58;27.68;97546.34;5144160;27;895;-75
2021/01/07 05:18:50;;;;;;;;;;;;;;;22.53;27.72;97529.16;5144608;27;847;-75
2021/01/07 05:21:16;;;;;;;;;;;;;;;21.41;28.95;97527.88;5139229;27;1482;-75
2021/01/07 05:23:41;;;;;;;;;;;;;;;21.37;29.24;97530.00;5124774;27;1486;-75
2021/01/07 05:26:08;;;;;;;;;;;;;;;21.36;29.47;97545.41;5105995;28;1977;-75
2021/01/07 05:28:33;;;;;;;;;;;;;;;21.45;29.39;97548.31;5123270;28;911;-75
2021/01/07 05:30:59;;;;;;;;;;;;;;;21.98;29.18;97551.38;5123634;28;837;-75
2021/01/07 05:33:24;;;;;;;;;;;;;;;22.45;28.20;97561.88;5124511;27;1533;-75
2021/01/07 05:35:50;;;;;;;;;;;;;;;22.59;27.82;97564.19;5118340;27;1510;-75
2021/01/07 05:38:15;;;;;;;;;;;;;;;22.43;27.74;97558.69;5144084;27;669;-75
2021/01/07 05:40:41;;;;;;;;;;;;;;;21.28;29.68;97554.09;5126049;27;1258;-75
2021/01/07 05:43:12;;;;;;;;;;;;;;;20.97;29.73;97559.53;5141754;27;1541;-75
2021/01/07 05:45:39;;;;;;;;;;;;;;;21.43;29.41;97554.44;5138174;27;1482;-75
2021/01/07 05:48:04;;;;;;;;;;;;;;;21.49;29.47;97554.66;5123252;28;1976;-75
2021/01/07 05:50:37;;;;;;;;;;;;;;;21.30;29.64;97548.03;5123203;28;634;-75
2021/01/07 05:53:03;;;;;;;;;;;;;;;21.47;29.73;97534.53;5123181;28;582;-75
2021/01/07 05:55:29;;;;;;;;;;;;;;;22.18;28.67;97540.56;5124317;27;1518;-75
2021/01/07 05:57:58;;;;;;;;;;;;;;;22.33;28.34;97544.47;5127915;27;1596;-75
2021/01/07 06:00:24;;;;;;;;;;;;;;;22.47;28.14;97557.31;5143313;27;805;-75
2021/01/07 06:02:49;;;;;;;;;;;;;;;22.62;27.87;97571.75;5143445;27;983;-75
2021/01/07 06:05:15;;;;;;;;;;;;;;;22.36;27.88;97566.22;5143865;27;636;-75
2021/01/07 06:07:40;;;;;;;;;;;;;;;20.99;29.55;97561.91;5141885;27;1906;-75
2021/01/07 06:10:06;;;;;;;;;;;;;;;20.87;30.10;97551.38;5143338;27;670;-75
2021/01/07 06:12:32;;;;;;;;;;;;;;;21.30;29.52;97554.47;5143092;27;884;-75
2021/01/07 06:14:58;;;;;;;;;;;;;;;22.01;29.38;97551.25;5143211;27;931;-75
2021/01/07 06:17:24;;;;;;;;;;;;;;;22.60;27.96;97543.06;5141435;27;1509;-75
2021/01/07 06:19:51;;;;;;;;;;;;;;;22.81;27.38;97539.41;5124964;28;701;-75
2021/01/07 06:22:17;;;;;;;;;;;;;;;22.34;28.00;97546.06;5142980;27;669;-75
2021/01/07 06:24:43;;;;;;;;;;;;;;;21.66;28.93;97556.13;5143254;27;1011;-74
2021/01/07 06:27:22;;;;;;;;;;;;;;;21.05;29.86;97565.75;5142016;27;1974;-75
2021/01/07 06:29:48;;;;;;;;;;;;;;;21.56;29.48;97554.44;5123089;27;1478;-75
2021/01/07 06:32:13;;;;;;;;;;;;;;;21.54;30.04;97551.25;5143051;27;911;-75
2021/01/07 06:34:39;;;;;;;;;;;;;;;22.17;28.64;97550.31;5143093;27;686;-75
2021/01/07 06:37:05;;;;;;;;;;;;;;;22.51;28.12;97560.03;5143090;27;618;-74
2021/01/07 06:39:30;;;;;;;;;;;;;;;22.71;27.90;97571.81;5140835;27;1580;-75
2021/01/07 06:41:59;;;;;;;;;;;;;;;22.05;28.55;97568.13;5142353;27;970;-74
2021/01/07 06:44:25;;;;;;;;;;;;;;;21.54;29.23;97560.53;5142657;27;858;-74
2021/01/07 06:46:50;;;;;;;;;;;;;;;21.30;29.86;97560.13;5124924;27;1898;-75
2021/01/07 06:49:19;;;;;;;;;;;;;;;21.65;29.38;97560.19;5138052;27;1506;-75
2021/01/07 06:51:48;;;;;;;;;;;;;;;21.39;29.73;97567.13;5133596;27;1450;-74
2021/01/07 06:54:14;;;;;;;;;;;;;;;21.92;29.23;97573.06;5104145;28;1344;-72
2021/01/07 06:56:39;;;;;;;;;;;;;;;22.44;28.26;97571.63;5117639;27;1531;-75
2021/01/07 06:59:04;;;;;;;;;;;;;;;22.67;27.69;97574.00;5124435;27;891;-74
2021/01/07 07:01:30;;;;;;;;;;;;;;;22.34;27.87;97574.41;5124368;27;1060;-75
2021/01/07 07:03:58;;;;;;;;;;;;;;;21.13;29.67;97569.94;5132817;27;1890;-73
2021/01/07 07:06:27;;;;;;;;;;;;;;;21.46;29.25;97573.38;5111420;27;1976;-75
2021/01/07 07:08:52;;;;;;;;;;;;;;;21.82;29.07;97561.63;5129079;27;1887;-75
2021/01/07 07:11:33;;;;;;;;;;;;;;;22.28;28.19;97564.91;5128330;27;1594;-72
2021/01/07 07:13:59;;;;;;;;;;;;;;;22.50;27.58;97558.44;5135140;27;1640;-75
2021/01/07 07:16:25;;;;;;;;;;;;;;;22.72;27.08;97556.38;5141515;27;1624;-75
2021/01/07 07:18:54;;;;;;;;;;;;;;;21.81;28.49;97560.06;5103785;28;1336;-75
2021/01/07 07:21:24;;;;;;;;;;;;;;;21.69;28.46;97575.00;5121358;28;689;-75
2021/01/07 07:23:50;;;;;;;;;;;;;;;21.30;29.17;97560.13;5131986;27;1764;-75
2021/01/07 07:26:28;;;;;;;;;;;;;;;21.25;29.29;97569.16;5128594;27;1965;-75
2021/01/07 07:28:54;;;;;;;;;;;;;;;21.82;29.38;97567.28;5123698;27;951;-75
2021/01/07 07:31:34;;;;;;;;;;;;;;;22.41;28.11;97566.88;5110945;28;1549;-75
2021/01/07 07:34:00;;;;;;;;;;;;;;;22.79;27.55;97564.59;5121461;27;666;-75
2021/01/07 07:36:29;;;;;;;;;;;;;;;22.77;27.17;97561.44;5141487;27;808;-75
2021/01/07 07:38:54;;;;;;;;;;;;;;;21.65;28.92;97551.69;5125865;27;1564;-75
2021/01/07 07:41:21;;;;;;;;;;;;;;;21.51;29.16;97552.19;5120953;28;1058;-75
2021/01/07 07:43:46;;;;;;;;;;;;;;;21.31;29.16;97553.22;5102963;28;1474;-74
2021/01/07 07:46:12;;;;;;;;;;;;;;;21.06;29.62;97556.03;5112305;27;2206;-75
2021/01/07 07:48:37;;;;;;;;;;;;;;;21.42;29.13;97552.88;5123661;27;635;-75
2021/01/07 07:51:12;;;;;;;;;;;;;;;21.94;28.69;97550.72;5129300;27;1682;-74
2021/01/07 07:53:38;;;;;;;;;;;;;;;22.58;27.76;97543.53;5120940;28;701;-75
2021/01/07 07:56:03;;;;;;;;;;;;;;;22.56;27.80;97545.25;5133277;27;915;-75
2021/01/07 07:58:29;;;;;;;;;;;;;;;22.75;27.26;97552.63;5141431;27;879;-75
2021/01/07 08:00:55;;;;;;;;;;;;;;;22.93;26.86;97545.50;5141462;27;956;-75
2021/01/07 08:03:24;;;;;;;;;;;;;;;22.20;27.95;97549.41;5123359;27;650;-75
2021/01/07 08:05:49;;;;;;;;;;;;;;;21.71;28.91;97549.88;5134767;27;1501;-76
2021/01/07 08:08:21;;;;;;;;;;;;;;;21.19;30.05;97559.66;5126255;27;1905;-77
2021/01/07 08:10:47;;;;;;;;;;;;;;;21.49;29.57;97566.00;5102484;28;1471;-75
2021/01/07 08:13:12;;;;;;;;;;;;;;;21.62;29.42;97557.50;5131612;28;1691;-76
2021/01/07 08:15:38;;;;;;;;;;;;;;;21.65;29.86;97550.91;5139839;28;952;-78
2021/01/07 08:18:13;;;;;;;;;;;;;;;21.80;29.67;97561.28;5128450;28;1615;-76
2021/01/07 08:20:38;;;;;;;;;;;;;;;21.55;30.49;97561.31;5121159;28;598;-76
2021/01/07 08:23:07;;;;;;;;;;;;;;;21.35;30.68;97567.25;5135227;28;1311;-75
2021/01/07 08:25:33;;;;;;;;;;;;;;;21.71;29.90;97566.88;5120242;28;832;-75
2021/01/07 08:28:13;;;;;;;;;;;;;;;21.73;29.74;97570.03;5120578;28;1979;-75
2021/01/07 08:30:39;;;;;;;;;;;;;;;21.51;30.03;97563.50;5127014;28;1560;-75
2021/01/07 08:33:05;;;;;;;;;;;;;;;21.30;30.22;97559.34;5103214;28;682;-75
2021/01/07 08:35:30;;;;;;;;;;;;;;;21.47;30.03;97551.50;5120468;28;1328;-76
2021/01/07 08:37:56;;;;;;;;;;;;;;;22.18;29.22;97563.25;5122905;28;986;-75
2021/01/07 08:40:21;;;;;;;;;;;;;;;22.47;28.68;97550.84;5140849;28;873;-75
2021/01/07 08:42:47;;;;;;;;;;;;;;;22.82;28.17;97563.69;5140907;27;839;-76
2021/01/07 08:45:12;;;;;;;;;;;;;;;21.82;29.30;97555.97;5139677;27;1470;-75
2021/01/07 08:47:38;;;;;;;;;;;;;;;21.99;28.93;97558.63;5128030;27;1906;-75
2021/01/07 08:50:07;;;;;;;;;;;;;;;21.31;30.26;97561.72;5139714;27;1580;-75
2021/01/07 08:52:46;;;;;;;;;;;;;;;21.43;30.07;97562.16;5124254;28;875;-75
2021/01/07 08:55:12;;;;;;;;;;;;;;;21.02;31.01;97549.69;5123783;28;793;-75
2021/01/07 08:57:37;;;;;;;;;;;;;;;22.24;29.31;97552.91;5124138;28;655;-75
2021/01/07 09:00:19;;;;;;;;;;;;;;;22.61;28.24;97547.50;5124159;28;663;-75
2021/01/07 09:02:44;;;;;;;;;;;;;;;22.61;28.02;97553.16;5133457;27;1655;-75
2021/01/07 09:05:18;;;;;;;;;;;;;;;21.49;30.03;97554.66;5137996;27;636;-76
2021/01/07 09:07:44;;;;;;;;;;;;;;;21.66;29.47;97558.97;5123676;28;1984;-75
2021/01/07 09:10:10;;;;;;;;;;;;;;;21.44;29.99;97552.41;5123590;28;816;-75
2021/01/07 09:12:36;;;;;;;;;;;;;;;21.19;30.37;97539.84;5124142;28;1041;-75
2021/01/07 09:15:09;;;;;;;;;;;;;;;21.73;29.83;97524.72;5124265;28;702;-75
2021/01/07 09:17:38;;;;;;;;;;;;;;;22.34;28.67;97523.38;5140078;27;828;-76
2021/01/07 09:20:10;;;;;;;;;;;;;;;22.69;28.32;97514.78;5140598;27;1557;-75
2021/01/07 09:22:36;;;;;;;;;;;;;;;22.79;27.76;97530.56;5135299;27;1656;-75
2021/01/07 09:25:02;;;;;;;;;;;;;;;21.68;29.23;97499.81;5109182;28;1892;-75
2021/01/07 09:27:28;;;;;;;;;;;;;;;21.77;29.21;97508.41;5137378;27;1909;-75
2021/01/07 09:29:53;;;;;;;;;;;;;;;21.38;29.81;97508.94;5144193;27;626;-75
2021/01/07 09:32:19;;;;;;;;;;;;;;;21.45;29.68;97503.03;5123507;27;1552;-75
2021/01/07 09:34:44;;;;;;;;;;;;;;;20.80;30.85;97501.50;5123940;28;579;-75
2021/01/07 09:37:14;;;;;;;;;;;;;;;21.47;29.59;97506.22;5123077;28;1042;-75
2021/01/07 09:39:39;;;;;;;;;;;;;;;20.96;30.76;97489.28;5123816;27;864;-75
2021/01/07 09:42:05;;;;;;;;;;;;;;;21.46;29.98;97498.97;5123741;28;1596;-75
2021/01/07 09:44:31;;;;;;;;;;;;;;;22.14;28.93;97497.41;5144177;27;645;-75
2021/01/07 09:46:56;;;;;;;;;;;;;;;22.50;28.20;97496.06;5143775;27;1897;-75
2021/01/07 09:49:22;;;;;;;;;;;;;;;22.73;27.96;97492.72;5143980;27;638;-75
2021/01/07 09:51:47;;;;;;;;;;;;;;;22.40;28.35;97483.09;5143766;27;1057;-75
2021/01/07 09:54:13;;;;;;;;;;;;;;;21.64;29.38;97482.16;5132151;27;1501;-75
2021/01/07 09:56:39;;;;;;;;;;;;;;;21.65;29.46;97480.13;5141749;27;1576;-76
2021/01/07 09:59:04;;;;;;;;;;;;;;;21.58;29.69;97478.34;5142191;27;1592;-76
2021/01/07 10:01:30;;;;;;;;;;;;;;;21.37;30.03;97473.41;5143864;27;582;-75
2021/01/07 10:03:55;;;;;;;;;;;;;;;22.01;29.31;97465.47;5141449;27;1596;-75
2021/01/07 10:06:20;;;;;;;;;;;;;;;22.50;28.29;97462.84;5135665;27;1905;-75
2021/01/07 10:08:46;;;;;;;;;;;;;;;21.35;28.16;97255.16;5122854;28;867;-75
2021/01/07 10:11:12;;;;;;;;;;;;;;;22.55;27.59;97464.28;5129970;27;1474;-75
2021/01/07 10:13:37;;;;;;;;;;;;;;;21.69;29.38;97466.63;5122954;27;1526;-75
2021/01/07 10:16:03;;;;;;;;;;;;;;;21.28;30.04;97471.25;5122803;28;662;-76
2021/01/07 10:18:28;;;;;;;;;;;;;;;21.04;30.35;97462.34;5122600;28;658;-76
2021/01/07 10:20:55;;;;;;;;;;;;;;;21.05;30.34;97458.28;5124992;27;1529;-75
2021/01/07 10:23:20;;;;;;;;;;;;;;;22.11;29.17;97452.97;5103863;28;960;-76
2021/01/07 10:25:46;;;;;;;;;;;;;;;22.55;28.33;97450.91;5115365;27;1522;-76
2021/01/07 10:28:11;;;;;;;;;;;;;;;22.78;27.64;97449.56;5125456;27;1968;-77
2021/01/07 10:30:37;;;;;;;;;;;;;;;22.22;28.43;97447.69;5125387;27;653;-77
2021/01/07 10:33:02;;;;;;;;;;;;;;;21.84;29.04;97440.16;5141209;27;1525;-77
2021/01/07 10:35:28;;;;;;;;;;;;;;;21.83;29.00;97449.94;5143187;27;1070;-76
2021/01/07 10:37:58;;;;;;;;;;;;;;;21.64;29.23;97447.41;5142645;27;862;-76
2021/01/07 10:40:24;;;;;;;;;;;;;;;21.39;29.67;97448.25;5125165;27;902;-75
2021/01/07 10:42:50;;;;;;;;;;;;;;;21.28;30.26;97452.22;5139522;27;1494;-76
2021/01/07 10:45:15;;;;;;;;;;;;;;;22.09;29.15;97444.91;5143148;27;598;-76
2021/01/07 10:47:43;;;;;;;;;;;;;;;22.61;28.22;97440.53;5136984;27;1967;-76
2021/01/07 10:50:08;;;;;;;;;;;;;;;22.58;27.90;97452.00;5121759;28;948;-75
2021/01/07 10:52:53;;;;;;;;;;;;;;;21.31;30.18;97442.84;5104490;28;862;-76
2021/01/07 10:55:19;;;;;;;;;;;;;;;20.95;30.74;97448.88;5121944;28;630;-75
2021/01/07 10:58:09;;;;;;;;;;;;;;;21.10;30.08;97443.56;5105501;27;1526;-75
2021/01/07 11:00:38;;;;;;;;;;;;;;;21.24;30.22;97443.09;5131071;27;1585;-76
2021/01/07 11:03:19;;;;;;;;;;;;;;;22.20;28.91;97438.88;5142415;27;583;-76
2021/01/07 11:05:45;;;;;;;;;;;;;;;22.43;28.24;97431.91;5141826;27;862;-76
2021/01/07 11:08:14;;;;;;;;;;;;;;;22.93;27.49;97434.84;5140019;27;1902;-76
2021/01/07 11:10:41;;;;;;;;;;;;;;;21.55;29.41;97440.41;5104506;28;1042;-76
2021/01/07 11:13:07;;;;;;;;;;;;;;;21.20;29.94;97442.41;5104297;28;591;-76
2021/01/07 11:15:32;;;;;;;;;;;;;;;21.44;29.67;97436.38;5104266;28;737;-76
2021/01/07 11:18:00;;;;;;;;;;;;;;;21.35;29.72;97442.75;5104004;28;663;-76
2021/01/07 11:20:26;;;;;;;;;;;;;;;21.93;29.33;97441.50;5104393;28;1507;-76
2021/01/07 11:22:52;;;;;;;;;;;;;;;22.48;28.25;97448.31;5121300;28;1112;-76
2021/01/07 11:25:18;;;;;;;;;;;;;;;22.79;27.62;97448.31;5121274;28;910;-76
2021/01/07 11:27:43;;;;;;;;;;;;;;;22.68;27.72;97450.78;5121397;28;1897;-76
2021/01/07 11:30:09;;;;;;;;;;;;;;;21.64;29.27;97447.41;5122644;27;1521;-76
2021/01/07 11:32:37;;;;;;;;;;;;;;;21.14;30.27;97444.22;5121267;28;745;-76
2021/01/07 11:35:05;;;;;;;;;;;;;;;21.50;29.46;97448.69;5121097;28;958;-76
2021/01/07 11:37:40;;;;;;;;;;;;;;;21.47;29.77;97453.22;5121252;28;923;-76
2021/01/07 11:40:06;;;;;;;;;;;;;;;21.53;29.82;97470.41;5122082;27;1462;-76
2021/01/07 11:42:37;;;;;;;;;;;;;;;22.39;28.26;97467.34;5121181;28;678;-76
2021/01/07 11:45:12;;;;;;;;;;;;;;;22.70;27.84;97465.31;5121353;28;590;-76
2021/01/07 11:47:57;;;;;;;;;;;;;;;22.83;27.90;97468.03;5103278;28;1989;-76
2021/01/07 11:50:23;;;;;;;;;;;;;;;22.36;28.49;97469.84;5120450;27;1530;-76
2021/01/07 11:52:49;;;;;;;;;;;;;;;21.67;29.77;97492.59;5120527;28;984;-76
2021/01/07 11:55:14;;;;;;;;;;;;;;;21.55;29.67;97467.91;5107128;28;1675;-76
2021/01/07 11:57:40;;;;;;;;;;;;;;;21.56;30.09;97470.31;5103338;28;618;-76
2021/01/07 12:00:11;;;;;;;;;;;;;;;21.38;30.63;97475.00;5120668;28;626;-76
2021/01/07 12:02:37;;;;;;;;;;;;;;;22.33;29.25;97475.66;5120765;28;671;-75
2021/01/07 12:05:03;;;;;;;;;;;;;;;22.59;28.51;97471.41;5120739;28;894;-76
2021/01/07 12:07:28;;;;;;;;;;;;;;;22.69;28.53;97477.91;5129388;27;1972;-76
2021/01/07 12:09:54;;;;;;;;;;;;;;;22.39;28.88;97478.69;5139293;27;1506;-76
2021/01/07 12:12:20;;;;;;;;;;;;;;;21.67;30.21;97498.25;5123754;28;810;-76
2021/01/07 12:14:47;;;;;;;;;;;;;;;21.56;30.24;97497.81;5121841;28;1506;-76
2021/01/07 12:17:13;;;;;;;;;;;;;;;21.51;30.40;97490.69;5141288;27;598;-76
2021/01/07 12:19:38;;;;;;;;;;;;;;;21.66;31.26;97485.34;5142328;27;1462;-76
2021/01/07 12:22:04;;;;;;;;;;;;;;;22.38;29.66;97494.88;5114547;28;2040;-75
2021/01/07 12:24:30;;;;;;;;;;;;;;;22.71;29.11;97495.25;5144638;27;1699;-76
2021/01/07 12:26:55;;;;;;;;;;;;;;;22.90;28.79;97509.53;5139227;27;1906;-76
2021/01/07 12:29:21;;;;;;;;;;;;;;;22.60;28.70;97500.53;5132400;27;687;-76
2021/01/07 12:31:50;;;;;;;;;;;;;;;21.17;31.04;97504.75;5145601;27;591;-75
2021/01/07 12:34:34;;;;;;;;;;;;;;;21.60;30.07;97504.13;5126629;27;956;-77
2021/01/07 12:37:06;;;;;;;;;;;;;;;21.35;30.87;97504.19;5129209;27;884;-77
2021/01/07 12:39:35;;;;;;;;;;;;;;;21.82;30.75;97502.16;5124584;28;638;-76
2021/01/07 12:42:01;;;;;;;;;;;;;;;22.39;29.45;97518.38;5132376;27;1612;-76
2021/01/07 12:44:26;;;;;;;;;;;;;;;22.73;28.82;97532.44;5145417;27;645;-76
2021/01/07 12:46:52;;;;;;;;;;;;;;;22.90;28.52;97533.03;5125453;27;1905;-75
2021/01/07 12:49:18;;;;;;;;;;;;;;;22.41;29.09;97549.88;5126930;27;994;-76
2021/01/07 12:51:43;;;;;;;;;;;;;;;21.75;29.92;97550.53;5144876;27;812;-74
2021/01/07 12:54:09;;;;;;;;;;;;;;;21.24;31.01;97553.44;5141411;27;1541;-75
2021/01/07 12:56:40;;;;;;;;;;;;;;;21.56;31.00;97554.44;5135086;27;1581;-76
2021/01/07 12:59:07;;;;;;;;;;;;;;;22.40;29.38;97551.91;5126500;27;812;-75